TimeCST,TemperatureF,Dew PointF,Humidity,Sea Level PressureIn,VisibilityMPH,Wind Direction,Wind SpeedMPH,Gust SpeedMPH,PrecipitationIn,Events,Conditions,WindDirDegrees,DateUTC
12:23 AM,32.0,28.4,87,30.05,2.0,North,11.5,-,0.00,Snow,Light Snow,350,2013-03-01 06:23:00
12:54 AM,32.0,28.0,85,30.07,4.0,NNW,9.2,-,0.00,Snow,Light Snow,340,2013-03-01 06:54:00
1:18 AM,32.0,28.4,87,30.05,4.0,North,-9999.0,-,0.00,Snow,Light Snow,0,2013-03-01 07:18:00
1:43 AM,32.0,28.4,87,30.04,7.0,North,6.9,-,0.00,,Overcast,360,2013-03-01 07:43:00
1:54 AM,30.9,28.9,92,30.06,6.0,North,6.9,-,0.00,Snow,Light Snow,360,2013-03-01 07:54:00
2:51 AM,30.2,28.4,93,30.03,4.0,North,6.9,-,0.00,Snow,Light Snow,350,2013-03-01 08:51:00
3:17 AM,30.2,28.4,93,30.03,5.0,NNE,6.9,-,0.00,,Overcast,30,2013-03-01 09:17:00
3:54 AM,30.0,27.0,88,30.06,4.0,NNE,6.9,-,0.00,Snow,Light Snow,20,2013-03-01 09:54:00
4:46 AM,30.2,26.6,86,30.05,9.0,NNE,5.8,-,0.00,,Overcast,20,2013-03-01 10:46:00
6:09 AM,28.4,24.8,86,30.06,4.0,North,8.1,-,0.00,Snow,Light Snow,10,2013-03-01 12:09:00
6:21 AM,28.4,24.8,86,30.06,3.0,North,6.9,-,0.00,Snow,Light Snow,360,2013-03-01 12:21:00
6:42 AM,28.4,24.8,86,30.06,1.8,North,6.9,-,0.00,Snow,Light Snow,350,2013-03-01 12:42:00
6:54 AM,28.9,25.0,85,30.09,1.5,North,10.4,-,0.00,Snow,Light Snow,350,2013-03-01 12:54:00
7:09 AM,28.4,24.8,86,30.07,3.0,North,8.1,-,0.00,Snow,Light Snow,350,2013-03-01 13:09:00
7:30 AM,28.4,24.8,86,30.08,2.0,North,10.4,-,0.00,Snow,Light Snow,350,2013-03-01 13:30:00
8:07 AM,28.4,24.8,86,30.09,2.5,NNW,8.1,-,0.00,Snow,Light Snow,340,2013-03-01 14:07:00
8:19 AM,28.4,24.8,86,30.09,1.5,North,11.5,-,0.00,Snow,Light Snow,350,2013-03-01 14:19:00
9:36 AM,28.4,24.8,86,30.10,1.0,North,11.5,-,0.00,Snow,Light Snow,350,2013-03-01 15:36:00
10:11 AM,30.2,24.8,80,30.10,8.0,NNW,11.5,-,0.01,,Overcast,340,2013-03-01 16:11:00
10:54 AM,30.0,24.1,79,30.13,10.0,NNW,11.5,-,0.01,,Overcast,340,2013-03-01 16:54:00
11:49 AM,30.2,24.8,80,30.10,1.8,North,12.7,-,0.00,Snow,Light Snow,360,2013-03-01 17:49:00
11:54 AM,30.9,25.0,79,30.12,1.5,North,13.8,-,0.00,Snow,Light Snow,350,2013-03-01 17:54:00
12:54 PM,32.0,26.1,79,30.11,6.0,NNW,16.1,-,0.00,,Haze,340,2013-03-01 18:54:00
1:54 PM,30.9,26.1,82,30.11,6.0,North,13.8,-,0.00,Snow,Light Snow,350,2013-03-01 19:54:00
3:29 PM,30.2,26.6,86,30.09,8.0,North,11.5,-,0.00,,Overcast,360,2013-03-01 21:29:00
4:54 PM,30.0,25.0,82,30.14,10.0,North,15.0,-,N/A,,Overcast,360,2013-03-01 22:54:00
5:43 PM,30.2,24.8,80,30.12,7.0,North,12.7,-,N/A,,Overcast,350,2013-03-01 23:43:00
5:54 PM,30.0,25.0,82,30.15,7.0,North,12.7,-,N/A,,Overcast,360,2013-03-01 23:54:00
6:54 PM,28.9,25.0,85,30.17,6.0,North,13.8,-,0.00,Snow,Light Snow,360,2013-03-02 00:54:00
7:54 PM,28.9,24.1,82,30.18,7.0,North,17.3,-,0.00,,Overcast,350,2013-03-02 01:54:00
8:54 PM,28.0,24.1,85,30.18,5.0,North,16.1,-,0.00,,Overcast,360,2013-03-02 02:54:00
9:54 PM,28.0,23.0,81,30.19,10.0,North,16.1,19.6,N/A,,Overcast,350,2013-03-02 03:54:00
10:54 PM,26.1,21.9,84,30.19,8.0,North,16.1,-,N/A,,Overcast,350,2013-03-02 04:54:00